Time;durP1;ratioP1;P1;durP2;ratioP2;P2;SDS_P1;SDS_P2;PMS_P1;PMS_P2;Temp;Humidity;BMP_temperature;BMP_pressure;BME280_temperature;BME280_humidity;BME280_pressure;Samples;Min_cycle;Max_cycle;Signal;HPM_P1;HPM_P2
2021/10/31 00:01:19;;;;;;;6.30;4.40;;;10.70;99.90;;;;;;6148401;23;20883;-79
2021/10/31 00:03:45;;;;;;;6.45;4.70;;;10.80;99.90;;;;;;6147866;23;20159;-79
2021/10/31 00:06:11;;;;;;;5.18;4.32;;;10.80;99.90;;;;;;6148198;23;20152;-78
2021/10/31 00:08:36;;;;;;;4.97;4.28;;;11.10;99.90;;;;;;6148125;23;20702;-78
2021/10/31 00:11:02;;;;;;;5.30;4.40;;;11.30;99.90;;;;;;6147826;23;20159;-79
2021/10/31 00:13:29;;;;;;;6.15;4.38;;;11.20;99.90;;;;;;6147808;23;20163;-78
2021/10/31 00:15:54;;;;;;;5.55;4.53;;;11.20;99.90;;;;;;6148260;23;20183;-78
2021/10/31 00:18:20;;;;;;;5.50;4.50;;;11.40;99.90;;;;;;6147780;23;20218;-78
2021/10/31 00:20:46;;;;;;;6.43;4.90;;;11.40;99.90;;;;;;6148213;23;20155;-79
2021/10/31 00:23:11;;;;;;;4.78;4.25;;;11.50;99.90;;;;;;6147833;23;20155;-78
2021/10/31 00:25:37;;;;;;;6.50;5.15;;;11.50;99.90;;;;;;6148261;23;20453;-78
2021/10/31 00:28:02;;;;;;;5.13;4.40;;;11.50;99.90;;;;;;6148307;23;20250;-79
2021/10/31 00:30:28;;;;;;;6.07;4.68;;;11.50;99.90;;;;;;6147714;23;20612;-79
2021/10/31 00:32:54;;;;;;;6.43;4.63;;;11.60;99.90;;;;;;6148239;23;20159;-78
2021/10/31 00:35:19;;;;;;;5.00;4.25;;;11.60;99.90;;;;;;6148126;23;20179;-78
2021/10/31 00:37:45;;;;;;;5.10;4.60;;;11.70;99.90;;;;;;6148037;23;20172;-79
2021/10/31 00:40:11;;;;;;;7.13;4.95;;;11.70;99.90;;;;;;6121597;23;20171;-78
2021/10/31 00:42:37;;;;;;;5.25;4.30;;;11.70;99.90;;;;;;6121846;23;20163;-78
2021/10/31 00:45:04;;;;;;;6.20;4.97;;;11.70;99.90;;;;;;6147836;23;20187;-76
2021/10/31 00:47:30;;;;;;;5.57;4.55;;;11.70;99.90;;;;;;6120627;23;20215;-80
2021/10/31 00:49:55;;;;;;;5.78;4.50;;;11.80;99.90;;;;;;6121786;23;20167;-78
2021/10/31 00:52:22;;;;;;;5.55;4.22;;;11.80;99.90;;;;;;6147552;23;20155;-78
2021/10/31 00:54:48;;;;;;;6.65;4.72;;;11.80;99.90;;;;;;6147837;23;20179;-78
2021/10/31 00:57:15;;;;;;;5.63;4.43;;;11.90;99.90;;;;;;6147775;23;20205;-79
2021/10/31 00:59:40;;;;;;;5.60;4.68;;;11.90;99.90;;;;;;6147716;23;20612;-79
2021/10/31 01:02:11;;;;;;;8.00;4.68;;;11.90;99.90;;;;;;6147674;23;20162;-77
2021/10/31 01:04:40;;;;;;;6.60;4.97;;;12.10;99.90;;;;;;6148259;23;20295;-78
2021/10/31 01:07:21;;;;;;;5.53;4.20;;;12.00;99.90;;;;;;6147551;23;20179;-78
2021/10/31 01:10:13;;;;;;;5.68;4.38;;;12.00;99.90;;;;;;6147702;23;20588;-79
2021/10/31 01:13:16;;;;;;;5.20;4.68;;;11.90;99.90;;;;;;6147415;23;20145;-78
2021/10/31 01:16:18;;;;;;;5.45;4.45;;;11.90;99.90;;;;;;6147718;23;20179;-78
2021/10/31 01:18:56;;;;;;;4.78;4.28;;;11.90;99.90;;;;;;6147487;23;20195;-79
2021/10/31 01:21:52;;;;;;;5.35;4.15;;;11.80;99.90;;;;;;6147421;23;20155;-79
2021/10/31 01:25:02;;;;;;;6.72;4.65;;;11.90;99.90;;;;;;6121531;23;20166;-78
2021/10/31 01:27:49;;;;;;;6.13;4.38;;;11.80;99.90;;;;;;6110279;23;20183;-77
2021/10/31 01:30:43;;;;;;;6.80;4.55;;;11.80;99.90;;;;;;6147484;23;20139;-78
2021/10/31 01:33:37;;;;;;;5.45;4.18;;;11.70;99.90;;;;;;6047886;23;20271;-78
2021/10/31 01:36:41;;;;;;;5.93;4.78;;;11.80;99.90;;;;;;6147484;23;20187;-78
2021/10/31 01:39:28;;;;;;;4.63;4.10;;;11.90;99.90;;;;;;5976525;23;20177;-79
2021/10/31 01:42:22;;;;;;;5.88;4.93;;;11.90;99.90;;;;;;5975972;23;20175;-78
2021/10/31 01:45:00;;;;;;;5.20;3.90;;;12.00;99.90;;;;;;6117602;23;20163;-78
2021/10/31 01:47:38;;;;;;;5.35;4.55;;;11.90;99.90;;;;;;6147449;23;20179;-78
2021/10/31 01:50:39;;;;;;;4.93;4.13;;;11.90;99.90;;;;;;6121012;23;20615;-79
2021/10/31 01:53:30;;;;;;;5.35;4.07;;;11.90;99.90;;;;;;6147052;23;20136;-78
2021/10/31 01:56:22;;;;;;;5.43;4.22;;;11.90;99.90;;;;;;6147186;23;20179;-78
2021/10/31 01:58:58;;;;;;;4.85;4.03;;;11.90;99.90;;;;;;6140935;23;20184;-78
2021/10/31 02:01:26;;;;;;;5.63;4.28;;;12.00;99.90;;;;;;6147070;23;20139;-78
2021/10/31 02:03:53;;;;;;;4.93;4.18;;;11.90;99.90;;;;;;6146927;23;20679;-78
2021/10/31 02:06:22;;;;;;;5.45;4.32;;;11.90;99.90;;;;;;6147538;23;20184;-78
2021/10/31 02:08:49;;;;;;;4.60;4.03;;;11.90;99.90;;;;;;6146986;23;20232;-79
2021/10/31 02:11:17;;;;;;;5.82;4.88;;;11.80;99.90;;;;;;6146906;23;20170;-78
2021/10/31 02:13:46;;;;;;;5.88;4.13;;;11.90;99.90;;;;;;6147162;23;20210;-78
2021/10/31 02:16:15;;;;;;;5.32;3.80;;;11.90;99.90;;;;;;6121010;23;20242;-77
2021/10/31 02:18:41;;;;;;;5.78;4.28;;;11.90;99.90;;;;;;6147262;23;20183;-78
2021/10/31 02:21:10;;;;;;;5.57;4.38;;;11.90;99.90;;;;;;6120835;23;20245;-80
2021/10/31 02:23:35;;;;;;;5.35;4.40;;;11.90;99.90;;;;;;6146786;23;20176;-78
2021/10/31 02:26:01;;;;;;;5.13;4.53;;;11.90;99.90;;;;;;6121001;23;20609;-78
2021/10/31 02:28:27;;;;;;;5.80;4.30;;;12.00;99.90;;;;;;6120551;23;20274;-78
2021/10/31 02:30:53;;;;;;;5.15;4.65;;;12.10;99.90;;;;;;6120831;23;20160;-78
2021/10/31 02:33:19;;;;;;;5.25;4.60;;;12.10;99.90;;;;;;6146819;23;20202;-79
2021/10/31 02:35:44;;;;;;;4.82;4.20;;;12.10;99.90;;;;;;6146964;23;20624;-78
2021/10/31 02:38:10;;;;;;;5.55;4.25;;;12.10;99.90;;;;;;6146865;23;20178;-79
2021/10/31 02:40:36;;;;;;;6.80;5.00;;;12.10;99.90;;;;;;6120768;23;20190;-81
2021/10/31 02:43:03;;;;;;;6.53;4.82;;;12.10;99.90;;;;;;6146654;23;20332;-78
2021/10/31 02:45:29;;;;;;;8.20;4.93;;;12.10;99.90;;;;;;6120627;23;20163;-78
2021/10/31 02:48:14;;;;;;;5.97;4.55;;;12.10;99.90;;;;;;6147153;23;20503;-79
2021/10/31 02:50:43;;;;;;;6.45;4.40;;;12.10;99.90;;;;;;6121210;23;20156;-79
2021/10/31 02:53:32;;;;;;;5.72;4.53;;;12.20;99.90;;;;;;6120418;23;20251;-80
2021/10/31 02:56:26;;;;;;;5.70;4.68;;;12.20;99.90;;;;;;6120428;23;20271;-79
2021/10/31 02:59:01;;;;;;;6.43;4.57;;;12.10;99.90;;;;;;6141813;23;20568;-79
2021/10/31 03:01:28;;;;;;;5.15;4.47;;;12.20;99.90;;;;;;6146755;23;20143;-78
2021/10/31 03:03:55;;;;;;;5.03;4.53;;;12.10;99.90;;;;;;6146896;23;20159;-78
2021/10/31 03:06:22;;;;;;;6.07;4.75;;;12.10;99.90;;;;;;6146960;23;20148;-78
2021/10/31 03:08:48;;;;;;;6.18;4.35;;;12.10;99.90;;;;;;6147147;23;20178;-79
2021/10/31 03:11:14;;;;;;;5.50;4.53;;;11.90;99.90;;;;;;6147479;23;20156;-78
2021/10/31 03:13:40;;;;;;;5.88;4.10;;;11.80;99.90;;;;;;6122538;23;20214;-78
2021/10/31 03:16:06;;;;;;;5.40;4.60;;;11.80;99.90;;;;;;6148469;23;20180;-78
2021/10/31 03:18:32;;;;;;;5.57;4.70;;;11.90;99.90;;;;;;6148814;23;20194;-79
2021/10/31 03:20:58;;;;;;;5.45;4.82;;;11.90;99.90;;;;;;6148342;23;20179;-78
2021/10/31 03:23:23;;;;;;;6.03;4.80;;;11.90;99.90;;;;;;6122512;23;20156;-78
2021/10/31 03:25:49;;;;;;;5.38;4.38;;;11.90;99.90;;;;;;6148260;23;20163;-79
2021/10/31 03:28:15;;;;;;;5.38;4.28;;;11.80;99.90;;;;;;6148813;23;20175;-79
2021/10/31 03:30:40;;;;;;;5.10;4.60;;;11.80;99.90;;;;;;6122765;23;20156;-78
2021/10/31 03:33:06;;;;;;;6.13;4.78;;;11.80;99.90;;;;;;6122074;23;20929;-78
2021/10/31 03:35:32;;;;;;;5.85;4.47;;;11.90;99.90;;;;;;6148614;23;20184;-78
2021/10/31 03:37:57;;;;;;;5.10;4.60;;;11.90;99.90;;;;;;6148314;23;20176;-80
2021/10/31 03:40:23;;;;;;;5.40;4.38;;;12.10;99.90;;;;;;6148759;23;20203;-76
2021/10/31 03:42:49;;;;;;;4.88;4.28;;;12.10;99.90;;;;;;6148185;23;20148;-78
2021/10/31 03:45:16;;;;;;;6.00;4.53;;;12.10;99.90;;;;;;6122560;23;20160;-77
2021/10/31 03:47:46;;;;;;;5.40;4.78;;;12.10;99.90;;;;;;6148119;23;20171;-78
2021/10/31 03:50:12;;;;;;;4.50;4.00;;;12.00;99.90;;;;;;6148539;23;20144;-79
2021/10/31 03:52:38;;;;;;;5.43;4.43;;;11.90;99.90;;;;;;6148300;23;20178;-77
2021/10/31 03:55:04;;;;;;;5.18;4.07;;;11.90;99.90;;;;;;6148142;23;20273;-76
2021/10/31 03:57:29;;;;;;;5.25;4.75;;;11.80;99.90;;;;;;6147477;23;20571;-78
2021/10/31 03:59:55;;;;;;;5.20;4.70;;;11.80;99.90;;;;;;6148435;23;20191;-78
2021/10/31 04:02:21;;;;;;;6.65;4.55;;;11.70;99.90;;;;;;6148006;23;20160;-78
2021/10/31 04:04:47;;;;;;;5.20;4.45;;;11.80;99.90;;;;;;6148520;23;20159;-78
2021/10/31 04:07:12;;;;;;;6.45;4.80;;;11.70;99.90;;;;;;6147393;23;20183;-80
2021/10/31 04:09:38;;;;;;;6.03;4.82;;;11.60;99.90;;;;;;6147903;23;20151;-79
2021/10/31 04:12:04;;;;;;;5.70;5.13;;;11.50;99.90;;;;;;6121136;23;20160;-78
2021/10/31 04:14:30;;;;;;;6.13;4.43;;;11.50;99.90;;;;;;6121641;23;20588;-78
2021/10/31 04:16:55;;;;;;;4.90;4.32;;;11.50;99.90;;;;;;6120157;23;20172;-79
2021/10/31 04:19:21;;;;;;;4.75;4.35;;;11.50;99.90;;;;;;6146174;23;20612;-78
2021/10/31 04:21:47;;;;;;;5.40;4.90;;;11.40;99.90;;;;;;6121327;23;20503;-78
2021/10/31 04:24:12;;;;;;;4.80;4.30;;;11.40;99.90;;;;;;6147108;23;20163;-78
2021/10/31 04:26:38;;;;;;;6.05;4.90;;;11.40;99.90;;;;;;6146532;23;20162;-78
2021/10/31 04:29:04;;;;;;;5.75;4.95;;;11.40;99.90;;;;;;6144426;23;20233;-78
2021/10/31 04:31:29;;;;;;;6.22;5.03;;;11.40;99.90;;;;;;6144029;23;20150;-78
2021/10/31 04:33:55;;;;;;;5.20;4.60;;;11.40;99.90;;;;;;6118142;23;20239;-78
2021/10/31 04:36:20;;;;;;;5.50;4.55;;;11.50;99.90;;;;;;6144422;23;20406;-77
2021/10/31 04:38:49;;;;;;;4.75;4.13;;;11.50;99.90;;;;;;6145215;23;20179;-79
2021/10/31 04:41:15;;;;;;;5.38;4.75;;;11.50;99.90;;;;;;6145257;23;20908;-78
2021/10/31 04:43:41;;;;;;;6.07;4.55;;;11.50;99.90;;;;;;6145067;23;20155;-78
2021/10/31 04:46:06;;;;;;;5.35;4.72;;;11.50;99.90;;;;;;6145577;23;20171;-78
2021/10/31 04:48:32;;;;;;;5.60;5.05;;;11.50;99.90;;;;;;6145872;23;20182;-78
2021/10/31 04:50:58;;;;;;;6.82;4.95;;;11.60;99.90;;;;;;6144641;23;20615;-78
2021/10/31 04:53:23;;;;;;;5.72;4.90;;;11.70;99.90;;;;;;6118762;23;20174;-77
2021/10/31 04:55:50;;;;;;;6.25;5.00;;;11.80;99.90;;;;;;6118787;23;20269;-79
2021/10/31 04:58:16;;;;;;;7.22;5.30;;;11.80;99.90;;;;;;6145003;23;20175;-78
2021/10/31 05:00:41;;;;;;;7.13;5.20;;;11.80;99.90;;;;;;6144804;23;20148;-78
2021/10/31 05:03:07;;;;;;;5.78;5.18;;;11.90;99.90;;;;;;6144360;23;20155;-79
2021/10/31 05:05:33;;;;;;;5.35;4.72;;;11.90;99.90;;;;;;6119120;23;20163;-79
2021/10/31 05:08:01;;;;;;;6.25;5.15;;;11.70;99.90;;;;;;6144890;23;20190;-78
2021/10/31 05:10:27;;;;;;;6.45;4.70;;;11.50;99.90;;;;;;6145043;23;20160;-79
2021/10/31 05:12:53;;;;;;;5.78;5.18;;;11.30;99.90;;;;;;6144824;23;20155;-78
2021/10/31 05:15:19;;;;;;;5.70;5.10;;;11.20;99.90;;;;;;6144323;23;20206;-78
2021/10/31 05:17:45;;;;;;;6.85;5.38;;;11.00;99.90;;;;;;6144612;23;20188;-78
2021/10/31 05:20:12;;;;;;;5.60;4.38;;;10.90;99.90;;;;;;6144874;23;20551;-78
2021/10/31 05:22:39;;;;;;;6.10;5.18;;;10.70;99.90;;;;;;6118215;23;20199;-79
2021/10/31 05:25:06;;;;;;;6.30;5.68;;;10.60;99.90;;;;;;6144747;23;20156;-78
2021/10/31 05:27:32;;;;;;;6.10;5.40;;;10.50;99.90;;;;;;6144697;23;20181;-79
2021/10/31 05:29:58;;;;;;;6.40;5.25;;;10.40;99.90;;;;;;6118433;23;20168;-79
2021/10/31 05:32:25;;;;;;;7.38;5.18;;;10.20;99.90;;;;;;6144277;23;20166;-78
2021/10/31 05:34:50;;;;;;;6.55;5.35;;;10.20;99.90;;;;;;6144368;23;20183;-77
2021/10/31 05:37:16;;;;;;;6.97;5.65;;;10.10;99.90;;;;;;6144965;23;20546;-79
2021/10/31 05:39:42;;;;;;;6.47;5.63;;;10.00;99.90;;;;;;6144562;23;20163;-78
2021/10/31 05:42:08;;;;;;;6.72;5.68;;;9.90;99.90;;;;;;6144711;23;20207;-77
2021/10/31 05:44:33;;;;;;;7.07;5.60;;;9.80;99.90;;;;;;6144432;23;20620;-78
2021/10/31 05:46:59;;;;;;;6.60;5.90;;;9.80;99.90;;;;;;6145420;23;20513;-79
2021/10/31 05:49:25;;;;;;;6.63;5.22;;;9.60;99.90;;;;;;6144707;23;20156;-79
2021/10/31 05:51:50;;;;;;;6.43;5.70;;;9.50;99.90;;;;;;6144031;23;20234;-79
2021/10/31 05:54:16;;;;;;;6.70;6.00;;;9.50;99.90;;;;;;6144296;23;20164;-78
2021/10/31 05:56:42;;;;;;;6.93;5.67;;;9.40;99.90;;;;;;6117894;23;20717;-78
2021/10/31 05:59:08;;;;;;;7.27;6.07;;;9.40;99.90;;;;;;6145193;23;20321;-78
2021/10/31 06:01:33;;;;;;;8.97;7.80;;;9.50;99.90;;;;;;6144184;23;20392;-78
2021/10/31 06:04:00;;;;;;;8.30;7.47;;;9.50;99.90;;;;;;6144532;23;20494;-77
2021/10/31 06:06:26;;;;;;;10.07;7.30;;;9.60;99.90;;;;;;6118111;23;20163;-78
2021/10/31 06:08:52;;;;;;;7.28;6.22;;;9.60;99.90;;;;;;6118245;23;20261;-78
2021/10/31 06:11:18;;;;;;;7.43;6.50;;;9.60;99.90;;;;;;6144064;23;20156;-79
2021/10/31 06:13:44;;;;;;;7.63;6.40;;;9.60;99.90;;;;;;6117696;23;20432;-78
2021/10/31 06:16:10;;;;;;;6.85;6.03;;;9.60;99.90;;;;;;6144213;23;20187;-78
2021/10/31 06:18:36;;;;;;;7.93;6.30;;;9.70;99.90;;;;;;6143969;23;20667;-78
2021/10/31 06:21:03;;;;;;;8.05;6.72;;;9.70;99.90;;;;;;6144133;23;20152;-78
2021/10/31 06:23:29;;;;;;;7.77;6.67;;;9.80;99.90;;;;;;6118361;23;20568;-78
2021/10/31 06:25:54;;;;;;;8.00;6.77;;;9.90;99.90;;;;;;6144599;23;20164;-78
2021/10/31 06:28:20;;;;;;;6.75;6.00;;;10.00;99.90;;;;;;6144176;23;20182;-78
2021/10/31 06:30:46;;;;;;;8.48;6.55;;;10.10;99.90;;;;;;6117830;23;20225;-78
2021/10/31 06:33:11;;;;;;;7.60;6.55;;;10.10;99.90;;;;;;6144363;23;20166;-78
2021/10/31 06:35:37;;;;;;;7.30;6.32;;;10.20;99.90;;;;;;6143807;23;20471;-79
2021/10/31 06:38:03;;;;;;;7.60;6.68;;;10.20;99.90;;;;;;6118068;23;20179;-78
2021/10/31 06:40:29;;;;;;;9.98;6.68;;;10.30;99.90;;;;;;6143842;23;20159;-78
2021/10/31 06:42:54;;;;;;;7.28;6.57;;;10.40;99.90;;;;;;6118069;23;20155;-78
2021/10/31 06:45:20;;;;;;;7.70;6.20;;;10.40;99.90;;;;;;6118102;23;20163;-78
2021/10/31 06:47:46;;;;;;;7.60;6.15;;;10.40;99.90;;;;;;6145944;23;20198;-78
2021/10/31 06:50:12;;;;;;;7.57;6.57;;;10.50;99.90;;;;;;6148565;23;20209;-78
2021/10/31 06:52:37;;;;;;;7.85;5.97;;;10.50;99.90;;;;;;6148777;23;20233;-77
2021/10/31 06:55:05;;;;;;;7.00;6.30;;;10.60;99.90;;;;;;6149909;23;20183;-79
2021/10/31 06:57:31;;;;;;;6.97;6.28;;;10.60;99.90;;;;;;6149370;23;20525;-79
2021/10/31 06:59:57;;;;;;;8.13;6.07;;;10.60;99.90;;;;;;6149172;23;20166;-77
2021/10/31 07:02:22;;;;;;;7.13;6.32;;;10.70;99.90;;;;;;6149089;23;20160;-77
2021/10/31 07:04:48;;;;;;;6.93;6.03;;;10.80;99.90;;;;;;6149274;23;20155;-77
2021/10/31 07:07:14;;;;;;;8.27;6.45;;;10.80;99.90;;;;;;6149076;23;20176;-77
2021/10/31 07:09:39;;;;;;;8.35;6.53;;;10.90;99.90;;;;;;6116920;23;20171;-77
2021/10/31 07:12:06;;;;;;;7.35;6.00;;;10.80;99.90;;;;;;6122497;23;20159;-76
2021/10/31 07:14:31;;;;;;;7.07;6.32;;;10.90;99.90;;;;;;6148119;23;20254;-78
2021/10/31 07:16:57;;;;;;;7.93;7.13;;;10.90;99.90;;;;;;6122100;23;20188;-78
2021/10/31 07:19:22;;;;;;;7.00;5.85;;;10.90;99.90;;;;;;6148376;23;20625;-78
2021/10/31 07:21:48;;;;;;;8.95;5.80;;;10.90;99.90;;;;;;6121984;23;20160;-78
2021/10/31 07:24:14;;;;;;;8.15;6.50;;;10.80;99.90;;;;;;6148616;23;20151;-78
2021/10/31 07:26:39;;;;;;;7.50;6.35;;;10.70;99.90;;;;;;6148678;23;20171;-78
2021/10/31 07:29:08;;;;;;;7.50;6.20;;;10.70;99.90;;;;;;6148071;23;20148;-78
2021/10/31 07:31:36;;;;;;;7.10;6.30;;;10.70;99.90;;;;;;6148220;23;20151;-78
2021/10/31 07:34:02;;;;;;;7.75;5.90;;;10.70;99.90;;;;;;6147440;23;20228;-78
2021/10/31 07:36:28;;;;;;;7.78;5.57;;;10.60;99.90;;;;;;6147041;23;20183;-78
2021/10/31 07:38:54;;;;;;;6.85;6.15;;;10.60;99.90;;;;;;6144963;23;20271;-79
2021/10/31 07:41:20;;;;;;;8.27;6.50;;;10.60;99.90;;;;;;6119010;23;20218;-78
2021/10/31 07:43:45;;;;;;;7.55;5.78;;;10.60;99.90;;;;;;6117790;23;20218;-77
2021/10/31 07:46:11;;;;;;;7.22;6.35;;;10.60;99.90;;;;;;6146082;23;20940;-77
2021/10/31 07:48:37;;;;;;;8.10;6.80;;;10.60;99.90;;;;;;6121668;23;20640;-77
2021/10/31 07:51:03;;;;;;;9.05;6.53;;;10.70;99.90;;;;;;6122946;23;20174;-79
2021/10/31 07:53:29;;;;;;;8.43;6.57;;;10.80;99.90;;;;;;6148383;23;20412;-79
2021/10/31 07:55:55;;;;;;;7.88;6.65;;;10.90;99.90;;;;;;6122814;23;20192;-80
2021/10/31 07:58:24;;;;;;;7.30;6.32;;;11.00;99.90;;;;;;6122818;23;20253;-80
2021/10/31 08:00:49;;;;;;;7.65;6.05;;;11.10;99.90;;;;;;6149339;23;20152;-78
2021/10/31 08:03:19;;;;;;;7.90;6.80;;;11.10;99.90;;;;;;6123002;23;20170;-80
2021/10/31 08:05:45;;;;;;;9.07;8.10;;;11.30;99.90;;;;;;6149210;23;20613;-80
2021/10/31 08:08:11;;;;;;;8.43;7.53;;;11.50;99.90;;;;;;6149264;23;20175;-80
2021/10/31 08:10:37;;;;;;;6.60;5.75;;;11.70;99.90;;;;;;6123563;23;20219;-79
2021/10/31 08:13:02;;;;;;;8.52;6.68;;;11.90;99.90;;;;;;6149262;23;20183;-80
2021/10/31 08:15:29;;;;;;;6.20;5.60;;;11.90;99.90;;;;;;6123598;23;20725;-80
2021/10/31 08:17:54;;;;;;;6.63;5.63;;;12.10;99.90;;;;;;6148681;23;20187;-80
2021/10/31 08:20:20;;;;;;;6.97;5.75;;;12.20;99.90;;;;;;6147338;23;20163;-79
2021/10/31 08:22:46;;;;;;;5.90;5.30;;;12.40;99.90;;;;;;6145093;23;20186;-78
2021/10/31 08:25:12;;;;;;;7.57;5.60;;;12.40;99.90;;;;;;6145562;23;20159;-78
2021/10/31 08:27:37;;;;;;;6.05;5.43;;;12.50;99.90;;;;;;6145891;23;20510;-78
2021/10/31 08:30:04;;;;;;;6.03;4.93;;;12.50;99.90;;;;;;6144693;23;20163;-79
2021/10/31 08:32:38;;;;;;;6.28;5.10;;;12.50;99.90;;;;;;6144377;23;20155;-78
2021/10/31 08:35:04;;;;;;;5.65;5.00;;;12.50;99.90;;;;;;6144979;23;20360;-79
2021/10/31 08:37:30;;;;;;;6.00;5.40;;;12.60;99.90;;;;;;6145393;23;20168;-78
2021/10/31 08:39:55;;;;;;;6.05;5.10;;;12.70;99.90;;;;;;6145183;23;20151;-79
2021/10/31 08:42:21;;;;;;;6.65;5.15;;;12.70;99.90;;;;;;6146749;23;20535;-79
2021/10/31 08:44:47;;;;;;;6.00;4.97;;;12.80;99.90;;;;;;6146082;23;20166;-78
2021/10/31 08:47:12;;;;;;;5.70;5.10;;;12.80;99.90;;;;;;6119332;23;20194;-79
2021/10/31 08:49:38;;;;;;;6.13;5.35;;;12.80;99.90;;;;;;6145585;23;20243;-79
2021/10/31 08:52:07;;;;;;;5.90;4.82;;;12.90;99.90;;;;;;6145136;23;20160;-79
2021/10/31 08:54:39;;;;;;;5.50;5.00;;;13.00;99.90;;;;;;6116720;23;20188;-78
2021/10/31 08:57:06;;;;;;;6.75;5.32;;;13.10;99.90;;;;;;6145602;23;20181;-78
2021/10/31 08:59:33;;;;;;;6.03;5.18;;;13.20;99.90;;;;;;6145734;23;20152;-78
2021/10/31 09:01:59;;;;;;;5.65;4.85;;;13.30;99.90;;;;;;6145109;23;20162;-78
2021/10/31 09:04:26;;;;;;;5.90;5.30;;;13.40;99.90;;;;;;6119110;23;20596;-79
2021/10/31 09:06:52;;;;;;;6.35;5.10;;;13.60;99.90;;;;;;6145394;23;20198;-78
2021/10/31 09:09:19;;;;;;;5.10;4.60;;;13.80;99.90;;;;;;6145294;23;20235;-77
2021/10/31 09:11:46;;;;;;;5.38;4.75;;;13.90;99.90;;;;;;6148233;23;20167;-78
2021/10/31 09:14:14;;;;;;;5.20;4.50;;;14.00;99.90;;;;;;6147804;23;20164;-78
2021/10/31 09:16:40;;;;;;;5.55;4.88;;;14.00;99.90;;;;;;6121914;23;20497;-77
2021/10/31 09:19:05;;;;;;;5.00;4.22;;;14.10;99.90;;;;;;6122195;23;20186;-76
2021/10/31 09:21:31;;;;;;;5.35;4.60;;;14.30;99.90;;;;;;6123740;23;20160;-77
2021/10/31 09:23:57;;;;;;;6.55;4.68;;;14.40;99.90;;;;;;6122770;23;20362;-78
2021/10/31 09:26:22;;;;;;;5.18;4.68;;;14.60;99.90;;;;;;6149398;23;20163;-78
2021/10/31 09:28:49;;;;;;;5.68;4.43;;;14.70;99.90;;;;;;6148539;23;20516;-78
2021/10/31 09:31:15;;;;;;;4.97;4.10;;;14.80;99.90;;;;;;6148918;23;20162;-77
2021/10/31 09:33:41;;;;;;;4.28;3.88;;;15.00;99.90;;;;;;6148381;23;20174;-78
2021/10/31 09:36:07;;;;;;;4.47;4.07;;;15.00;99.90;;;;;;6148517;23;20667;-77
2021/10/31 09:38:34;;;;;;;4.35;3.75;;;15.00;99.90;;;;;;6148779;23;20178;-78
2021/10/31 09:41:00;;;;;;;5.28;4.60;;;14.80;99.90;;;;;;6146806;23;20167;-77
2021/10/31 09:43:29;;;;;;;5.20;4.07;;;14.80;99.90;;;;;;6148494;23;20175;-77
2021/10/31 09:46:01;;;;;;;4.35;3.95;;;14.80;99.90;;;;;;6149073;23;20239;-78
2021/10/31 09:48:31;;;;;;;4.07;3.67;;;14.90;99.90;;;;;;6149051;23;20604;-78
2021/10/31 09:50:57;;;;;;;4.25;3.75;;;15.10;99.90;;;;;;6149292;23;20198;-78
2021/10/31 09:53:25;;;;;;;6.00;3.70;;;15.20;99.90;;;;;;6148600;23;20577;-78
2021/10/31 09:55:52;;;;;;;4.50;3.40;;;15.40;99.90;;;;;;6121904;23;20187;-78
2021/10/31 09:58:24;;;;;;;3.78;3.00;;;15.40;99.90;;;;;;6122347;23;20552;-78
2021/10/31 10:00:53;;;;;;;3.80;3.30;;;15.60;99.90;;;;;;6148274;23;20140;-77
2021/10/31 10:06:28;;;;;;;3.55;3.17;;;15.90;99.90;;;;;;6148766;23;20144;-79
2021/10/31 10:09:06;;;;;;;3.03;2.72;;;16.00;99.90;;;;;;6146670;23;20175;-78
2021/10/31 10:11:37;;;;;;;4.07;2.58;;;16.10;99.90;;;;;;6118569;23;20163;-78
2021/10/31 10:14:13;;;;;;;2.53;2.33;;;16.20;99.90;;;;;;6148520;23;20281;-79
2021/10/31 10:16:41;;;;;;;3.42;2.03;;;16.20;99.90;;;;;;6148548;23;20175;-79
2021/10/31 10:19:19;;;;;;;2.13;1.92;;;16.30;99.90;;;;;;6122467;23;20179;-79
2021/10/31 10:21:51;;;;;;;2.05;1.85;;;16.30;99.90;;;;;;6148915;23;20140;-79
2021/10/31 10:24:19;;;;;;;2.25;2.05;;;16.30;99.90;;;;;;6122820;23;20202;-78
2021/10/31 10:26:45;;;;;;;2.38;2.10;;;16.40;99.90;;;;;;6149377;23;20182;-79
2021/10/31 10:29:24;;;;;;;2.92;1.90;;;16.30;99.90;;;;;;6149061;23;20179;-80
2021/10/31 10:31:57;;;;;;;2.20;1.92;;;16.40;99.90;;;;;;6148476;23;20458;-78
2021/10/31 10:34:56;;;;;;;1.80;1.70;;;16.40;99.90;;;;;;6148490;23;20163;-79
2021/10/31 10:37:22;;;;;;;3.30;2.15;;;16.40;99.90;;;;;;6148491;23;20179;-79
2021/10/31 10:40:09;;;;;;;2.30;1.60;;;16.40;99.90;;;;;;6148304;23;20155;-80
2021/10/31 10:42:42;;;;;;;3.05;1.75;;;16.50;99.90;;;;;;6148547;23;20692;-78
2021/10/31 10:45:11;;;;;;;2.10;1.70;;;16.60;99.90;;;;;;6148872;23;20144;-79
2021/10/31 10:47:49;;;;;;;1.95;1.70;;;16.70;99.90;;;;;;6122754;23;20221;-78
2021/10/31 10:50:18;;;;;;;1.60;1.50;;;16.90;99.90;;;;;;6148427;23;20588;-78
2021/10/31 10:52:45;;;;;;;2.20;2.00;;;16.80;99.90;;;;;;6148296;23;20155;-79
2021/10/31 10:55:16;;;;;;;1.35;1.25;;;16.70;99.90;;;;;;6122672;23;20536;-77
2021/10/31 10:57:56;;;;;;;1.42;1.25;;;16.50;99.90;;;;;;6148395;23;20175;-79
2021/10/31 11:00:36;;;;;;;1.48;1.38;;;16.50;99.90;;;;;;6148617;23;20147;-79
2021/10/31 11:03:09;;;;;;;1.52;1.42;;;16.50;99.90;;;;;;6147928;23;20144;-79
2021/10/31 11:05:44;;;;;;;2.72;1.50;;;16.50;99.90;;;;;;6149630;23;20538;-79
2021/10/31 11:08:19;;;;;;;3.60;1.60;;;16.50;99.90;;;;;;6122092;23;20182;-79
2021/10/31 11:10:48;;;;;;;1.40;1.23;;;16.60;99.90;;;;;;6149092;23;20575;-79
2021/10/31 11:13:15;;;;;;;1.40;1.30;;;16.60;99.90;;;;;;6148905;23;20160;-78
2021/10/31 11:15:40;;;;;;;2.00;1.30;;;16.60;99.90;;;;;;6148311;23;20187;-79
2021/10/31 11:18:08;;;;;;;1.35;1.13;;;16.60;99.90;;;;;;6148774;23;20187;-78
2021/10/31 11:20:42;;;;;;;1.25;1.13;;;16.60;99.90;;;;;;6148834;23;20155;-79
2021/10/31 11:23:10;;;;;;;1.23;1.13;;;16.60;99.90;;;;;;6149097;23;20152;-78
2021/10/31 11:25:38;;;;;;;1.25;1.15;;;16.70;99.90;;;;;;6149288;23;20159;-78
2021/10/31 11:28:08;;;;;;;1.98;1.20;;;16.70;99.90;;;;;;6148064;23;20582;-78
2021/10/31 11:30:36;;;;;;;1.60;1.30;;;16.90;99.90;;;;;;6147927;23;20569;-78
2021/10/31 11:33:04;;;;;;;1.63;1.52;;;17.10;99.90;;;;;;6150225;23;20156;-79
2021/10/31 11:35:30;;;;;;;2.15;1.73;;;17.20;99.90;;;;;;6152213;23;20453;-77
2021/10/31 11:38:07;;;;;;;2.28;1.50;;;17.10;99.90;;;;;;6150641;23;20226;-79
2021/10/31 11:40:34;;;;;;;2.88;1.60;;;17.20;99.90;;;;;;6123875;23;20147;-77
2021/10/31 11:43:03;;;;;;;1.85;1.70;;;17.20;99.90;;;;;;6150492;23;20235;-77
2021/10/31 11:45:34;;;;;;;2.25;1.40;;;17.20;99.90;;;;;;6150414;23;20162;-79
2021/10/31 11:48:23;;;;;;;1.05;1.02;;;17.10;99.90;;;;;;6150507;23;20180;-78
2021/10/31 11:51:04;;;;;;;1.30;1.00;;;17.20;99.90;;;;;;6149680;23;20180;-79
2021/10/31 11:53:43;;;;;;;1.58;1.00;;;17.10;99.90;;;;;;6150328;23;20190;-79
2021/10/31 11:56:25;;;;;;;0.85;0.85;;;17.20;99.90;;;;;;6149368;23;20258;-79
2021/10/31 11:58:59;;;;;;;1.10;1.00;;;17.20;99.90;;;;;;6147934;23;20616;-80
2021/10/31 12:01:32;;;;;;;1.38;1.27;;;17.30;99.90;;;;;;6147351;23;20128;-79
2021/10/31 12:04:00;;;;;;;2.08;1.10;;;17.40;99.90;;;;;;6148352;23;20187;-79
2021/10/31 12:06:25;;;;;;;3.08;2.38;;;17.50;99.90;;;;;;6148833;23;20156;-79
2021/10/31 12:09:05;;;;;;;3.30;2.55;;;17.30;99.90;;;;;;6149664;23;20238;-78
2021/10/31 12:11:37;;;;;;;3.40;2.70;;;17.20;99.90;;;;;;6149668;23;20144;-79
2021/10/31 12:14:07;;;;;;;3.30;2.90;;;17.00;99.90;;;;;;6123573;23;20160;-78
2021/10/31 12:16:53;;;;;;;3.83;3.10;;;16.80;99.90;;;;;;6149712;23;20167;-78
2021/10/31 12:19:38;;;;;;;3.28;2.95;;;16.70;99.90;;;;;;6149565;23;20163;-79
2021/10/31 12:22:18;;;;;;;3.22;2.85;;;16.70;99.90;;;;;;6149399;23;20144;-79
2021/10/31 12:25:11;;;;;;;3.30;3.00;;;16.70;99.90;;;;;;6149806;23;20136;-79
2021/10/31 12:27:45;;;;;;;3.40;3.10;;;16.70;99.90;;;;;;6143097;23;20224;-79
2021/10/31 12:30:20;;;;;;;3.20;2.80;;;16.70;99.90;;;;;;6123555;23;20182;-80
2021/10/31 12:32:46;;;;;;;4.03;3.10;;;16.70;99.90;;;;;;6120610;23;20607;-79
2021/10/31 12:35:56;;;;;;;3.17;2.88;;;16.70;99.90;;;;;;6149385;23;20189;-79
2021/10/31 12:38:25;;;;;;;3.38;2.50;;;16.80;99.90;;;;;;6143879;23;20202;-79
2021/10/31 12:41:18;;;;;;;3.17;2.83;;;16.80;99.90;;;;;;6149258;23;20963;-79
2021/10/31 12:43:47;;;;;;;3.50;3.13;;;16.90;99.90;;;;;;6122346;23;20218;-78
2021/10/31 12:46:15;;;;;;;3.42;3.13;;;16.90;99.90;;;;;;6123347;23;20174;-79
2021/10/31 12:48:41;;;;;;;3.70;3.08;;;16.80;99.90;;;;;;6148701;23;20176;-79
2021/10/31 12:51:13;;;;;;;3.80;2.83;;;16.70;99.90;;;;;;6125742;23;20238;-77
2021/10/31 12:53:40;;;;;;;2.97;2.70;;;16.70;99.90;;;;;;6101309;23;20171;-76
2021/10/31 12:56:06;;;;;;;3.40;2.83;;;16.70;99.90;;;;;;6151585;23;20176;-78
2021/10/31 12:58:31;;;;;;;3.15;2.85;;;16.80;99.90;;;;;;6151296;23;20168;-77
2021/10/31 13:00:58;;;;;;;3.83;3.00;;;16.90;99.90;;;;;;6125679;23;20249;-78
2021/10/31 13:03:24;;;;;;;2.83;2.63;;;16.90;99.90;;;;;;6150881;23;20152;-77